createdAt,value
2023-08-28T00:01:01.448Z,8.57
2023-08-28T00:03:29.259Z,6.90
2023-08-28T00:05:57.173Z,6.35
2023-08-28T00:08:24.769Z,6.00
2023-08-28T00:10:55.454Z,5.50
2023-08-28T00:13:23.116Z,6.00
2023-08-28T00:15:50.747Z,5.20
2023-08-28T00:18:18.695Z,5.20
2023-08-28T00:20:46.743Z,5.82
2023-08-28T00:23:14.289Z,4.87
2023-08-28T00:25:42.152Z,4.90
2023-08-28T00:28:09.682Z,5.07
2023-08-28T00:30:37.254Z,5.43
2023-08-28T00:33:05.609Z,5.00
2023-08-28T00:35:33.448Z,4.95
2023-08-28T00:38:01.257Z,4.80
2023-08-28T00:40:29.245Z,4.53
2023-08-28T00:42:56.827Z,4.95
2023-08-28T00:45:24.357Z,4.40
2023-08-28T00:47:52.200Z,4.07
2023-08-28T00:50:19.940Z,4.70
2023-08-28T00:52:47.598Z,5.05
2023-08-28T00:55:15.610Z,4.53
2023-08-28T00:57:43.131Z,4.37
2023-08-28T01:00:12.226Z,4.45
2023-08-28T01:02:41.059Z,3.80
2023-08-28T01:05:09.703Z,4.62
2023-08-28T01:08:32.663Z,4.20
2023-08-28T01:11:11.710Z,3.70
2023-08-28T01:13:46.353Z,4.78
2023-08-28T01:16:15.354Z,4.83
2023-08-28T01:18:43.880Z,4.87
2023-08-28T01:21:11.516Z,4.60
2023-08-28T01:23:48.747Z,4.37
2023-08-28T01:26:17.351Z,4.78
2023-08-28T01:28:46.374Z,4.40
2023-08-28T01:31:14.029Z,4.43
2023-08-28T01:33:41.770Z,4.30
2023-08-28T01:36:31.582Z,3.95
2023-08-28T01:39:05.544Z,4.45
2023-08-28T01:41:33.425Z,4.57
2023-08-28T01:44:03.165Z,4.50
2023-08-28T01:46:33.016Z,4.62
2023-08-28T01:49:01.049Z,4.82
2023-08-28T01:51:28.654Z,5.03
2023-08-28T01:53:56.293Z,4.60
2023-08-28T01:56:25.208Z,4.82
2023-08-28T01:58:55.575Z,5.20
2023-08-28T02:01:24.285Z,5.12
2023-08-28T02:03:52.663Z,4.55
2023-08-28T02:06:20.545Z,4.87
2023-08-28T02:08:48.090Z,5.22
2023-08-28T02:11:16.368Z,4.50
2023-08-28T02:13:44.044Z,4.80
2023-08-28T02:16:11.863Z,4.75
2023-08-28T02:18:40.383Z,4.30
2023-08-28T02:21:08.947Z,4.62
2023-08-28T02:23:36.778Z,5.05
2023-08-28T02:26:04.341Z,4.78
2023-08-28T02:28:34.038Z,4.87
2023-08-28T02:31:04.691Z,4.50
2023-08-28T02:33:33.213Z,4.72
2023-08-28T02:36:02.825Z,4.32
2023-08-28T02:38:30.872Z,4.55
2023-08-28T02:41:05.720Z,4.25
2023-08-28T02:43:33.776Z,4.30
2023-08-28T02:46:02.408Z,4.32
2023-08-28T02:48:29.916Z,4.28
2023-08-28T02:50:59.353Z,4.03
2023-08-28T02:53:26.909Z,4.75
2023-08-28T02:56:22.671Z,4.23
2023-08-28T02:58:51.771Z,4.40
2023-08-28T03:01:20.391Z,4.55
2023-08-28T03:03:48.472Z,4.07
2023-08-28T03:06:16.499Z,4.43
2023-08-28T03:08:44.150Z,4.37
2023-08-28T03:11:11.861Z,4.28
2023-08-28T03:13:39.733Z,4.57
2023-08-28T03:16:07.303Z,4.50
2023-08-28T03:18:34.918Z,4.07
2023-08-28T03:21:03.621Z,4.00
2023-08-28T03:23:31.421Z,3.60
2023-08-28T03:25:58.999Z,4.30
2023-08-28T03:28:26.970Z,4.20
2023-08-28T03:31:01.590Z,4.07
2023-08-28T03:33:29.940Z,4.10
2023-08-28T03:35:57.419Z,4.00
2023-08-28T03:38:24.917Z,4.62
2023-08-28T03:40:53.487Z,4.65
2023-08-28T03:43:20.982Z,4.47
2023-08-28T03:45:48.538Z,3.90
2023-08-28T03:48:16.358Z,4.50
2023-08-28T03:50:43.842Z,4.47
2023-08-28T03:53:11.339Z,4.62
2023-08-28T03:55:39.194Z,4.05
2023-08-28T03:58:06.753Z,3.90
2023-08-28T04:00:34.300Z,4.43
2023-08-28T04:03:02.647Z,4.22
2023-08-28T04:05:34.177Z,4.60
2023-08-28T04:08:02.029Z,3.90
2023-08-28T04:10:29.597Z,4.03
2023-08-28T04:12:57.153Z,3.90
2023-08-28T04:15:24.921Z,4.28
2023-08-28T04:17:52.468Z,4.05
2023-08-28T04:20:20.440Z,3.90
2023-08-28T04:22:48.848Z,3.77
2023-08-28T04:25:16.506Z,3.65
2023-08-28T04:27:44.026Z,3.95
2023-08-28T04:30:12.106Z,4.35
2023-08-28T04:32:40.708Z,3.67
2023-08-28T04:35:08.766Z,3.90
2023-08-28T04:37:36.597Z,4.57
2023-08-28T04:40:04.663Z,4.35
2023-08-28T04:42:32.251Z,3.40
2023-08-28T04:45:00.049Z,3.90
2023-08-28T04:47:28.272Z,3.90
2023-08-28T04:49:55.846Z,4.00
2023-08-28T04:52:23.818Z,3.67
2023-08-28T04:54:51.366Z,3.53
2023-08-28T04:57:18.989Z,4.03
2023-08-28T04:59:46.839Z,3.90
2023-08-28T05:02:14.490Z,4.15
2023-08-28T05:04:42.089Z,4.30
2023-08-28T05:07:12.580Z,3.87
2023-08-28T05:09:41.141Z,3.62
2023-08-28T05:12:08.984Z,4.07
2023-08-28T05:14:36.788Z,3.55
2023-08-28T05:17:04.498Z,3.72
2023-08-28T05:19:32.048Z,4.10
2023-08-28T05:22:00.178Z,3.95
2023-08-28T05:24:27.603Z,4.00
2023-08-28T05:26:55.579Z,4.00
2023-08-28T05:29:24.654Z,4.18
2023-08-28T05:31:52.282Z,3.75
2023-08-28T05:34:20.595Z,3.65
2023-08-28T05:36:48.569Z,4.13
2023-08-28T05:39:16.230Z,4.35
2023-08-28T05:41:43.867Z,3.65
2023-08-28T05:44:11.961Z,3.83
2023-08-28T05:46:39.623Z,3.95
2023-08-28T05:49:08.436Z,3.53
2023-08-28T05:51:36.353Z,3.47
2023-08-28T05:54:05.067Z,3.80
2023-08-28T05:56:32.650Z,3.90
2023-08-28T05:59:00.528Z,4.40
2023-08-28T06:01:28.141Z,4.00
2023-08-28T06:03:57.731Z,3.90
2023-08-28T06:06:25.390Z,3.83
2023-08-28T06:08:52.960Z,3.45
2023-08-28T06:11:20.825Z,3.70
2023-08-28T06:13:48.366Z,3.93
2023-08-28T06:16:15.887Z,3.55
2023-08-28T06:18:43.789Z,4.22
2023-08-28T06:21:12.060Z,3.92
2023-08-28T06:23:39.631Z,3.15
2023-08-28T06:26:07.543Z,3.67
2023-08-28T06:28:35.894Z,3.70
2023-08-28T06:31:04.243Z,3.83
2023-08-28T06:33:32.061Z,3.47
2023-08-28T06:35:59.640Z,3.95
2023-08-28T06:38:27.154Z,3.67
2023-08-28T06:40:55.063Z,3.83
2023-08-28T06:43:22.702Z,4.05
2023-08-28T06:45:50.249Z,3.40
2023-08-28T06:48:18.134Z,4.57
2023-08-28T06:50:45.853Z,3.83
2023-08-28T06:53:13.313Z,4.10
2023-08-28T06:55:41.155Z,4.15
2023-08-28T06:58:08.703Z,3.83
2023-08-28T07:00:36.336Z,4.45
2023-08-28T07:03:04.772Z,3.60
2023-08-28T07:05:32.816Z,3.87
2023-08-28T07:08:00.375Z,4.18
2023-08-28T07:10:28.194Z,4.10
2023-08-28T07:12:55.766Z,4.68
2023-08-28T07:15:43.266Z,4.30
2023-08-28T07:18:11.156Z,4.47
2023-08-28T07:20:39.172Z,4.37
2023-08-28T07:23:06.829Z,4.55
2023-08-28T07:25:34.598Z,4.40
2023-08-28T07:28:02.258Z,4.80
2023-08-28T07:30:29.801Z,5.03
2023-08-28T07:32:57.810Z,5.30
2023-08-28T07:35:27.282Z,5.47
2023-08-28T07:37:54.848Z,5.90
2023-08-28T07:40:22.852Z,5.57
2023-08-28T07:42:50.611Z,4.62
2023-08-28T07:45:18.108Z,4.37
2023-08-28T07:47:46.149Z,4.93
2023-08-28T07:50:14.159Z,5.35
2023-08-28T07:52:42.265Z,5.00
2023-08-28T07:55:10.341Z,5.15
2023-08-28T07:57:38.585Z,5.15
2023-08-28T08:00:07.391Z,5.97
2023-08-28T08:02:41.042Z,5.68
2023-08-28T08:05:12.219Z,5.13
2023-08-28T08:07:42.557Z,5.47
2023-08-28T08:10:12.023Z,5.40
2023-08-28T08:12:40.352Z,5.47
2023-08-28T08:15:08.860Z,5.35
2023-08-28T08:17:37.735Z,7.30
2023-08-28T08:20:11.149Z,7.72
2023-08-28T08:22:40.995Z,7.75
2023-08-28T08:25:10.473Z,6.65
2023-08-28T08:27:39.467Z,7.40
2023-08-28T08:30:09.348Z,7.27
2023-08-28T08:32:37.106Z,7.85
2023-08-28T08:35:06.768Z,7.90
2023-08-28T08:37:34.886Z,7.78
2023-08-28T08:40:02.609Z,7.80
2023-08-28T08:42:30.267Z,7.93
2023-08-28T08:44:58.168Z,7.68
2023-08-28T08:47:25.693Z,7.62
2023-08-28T08:49:57.675Z,9.27
2023-08-28T08:52:26.160Z,7.97
2023-08-28T08:55:01.155Z,7.23
2023-08-28T08:57:39.207Z,7.35
2023-08-28T09:00:18.693Z,6.37
2023-08-28T09:02:47.534Z,6.70
2023-08-28T09:05:16.343Z,6.28
2023-08-28T09:07:44.662Z,6.90
2023-08-28T09:10:14.100Z,6.68
2023-08-28T09:12:47.118Z,6.65
2023-08-28T09:15:16.032Z,6.90
2023-08-28T09:17:44.166Z,7.40
2023-08-28T09:20:15.966Z,7.07
2023-08-28T09:23:02.756Z,7.32
2023-08-28T09:25:30.439Z,6.47
2023-08-28T09:27:58.554Z,6.05
2023-08-28T09:30:38.266Z,7.10
2023-08-28T09:33:08.370Z,7.17
2023-08-28T09:35:44.495Z,7.32
2023-08-28T09:38:12.735Z,6.68
2023-08-28T09:40:41.847Z,6.75
2023-08-28T09:43:16.440Z,7.65
2023-08-28T09:45:46.695Z,7.23
2023-08-28T09:48:15.460Z,6.85
2023-08-28T09:50:43.760Z,7.20
2023-08-28T09:53:16.383Z,6.78
2023-08-28T09:55:48.100Z,7.15
2023-08-28T09:58:16.061Z,7.60
2023-08-28T10:00:44.768Z,7.60
2023-08-28T10:03:13.940Z,7.05
2023-08-28T10:05:43.748Z,7.43
2023-08-28T10:08:12.895Z,8.02
2023-08-28T10:10:42.481Z,7.17
2023-08-28T10:13:15.269Z,7.18
2023-08-28T10:15:56.625Z,7.95
2023-08-28T10:18:35.846Z,7.15
2023-08-28T10:21:04.074Z,8.02
2023-08-28T10:23:31.790Z,7.73
2023-08-28T10:26:00.551Z,7.87
2023-08-28T10:28:29.977Z,7.95
2023-08-28T10:30:58.666Z,8.05
2023-08-28T10:33:26.779Z,8.25
2023-08-28T10:35:55.850Z,8.37
2023-08-28T10:38:24.227Z,8.30
2023-08-28T10:40:55.347Z,8.95
2023-08-28T10:43:24.126Z,7.93
2023-08-28T10:45:52.634Z,8.70
2023-08-28T10:48:21.655Z,8.67
2023-08-28T10:50:49.720Z,8.77
2023-08-28T10:53:17.560Z,8.10
2023-08-28T10:55:53.499Z,8.13
2023-08-28T10:58:22.535Z,8.40
2023-08-28T11:01:14.624Z,7.80
2023-08-28T11:03:57.839Z,7.35
2023-08-28T11:06:41.105Z,8.05
2023-08-28T11:09:27.403Z,8.05
2023-08-28T11:12:20.768Z,7.28
2023-08-28T11:14:54.833Z,8.23
2023-08-28T11:17:25.277Z,7.80
2023-08-28T11:19:57.151Z,8.20
2023-08-28T11:22:35.197Z,7.75
2023-08-28T11:25:13.557Z,8.18
2023-08-28T11:27:49.678Z,7.10
2023-08-28T11:30:20.974Z,7.97
2023-08-28T11:32:53.958Z,7.32
2023-08-28T11:35:23.400Z,7.62
2023-08-28T11:37:55.515Z,7.80
2023-08-28T11:40:27.205Z,7.20
2023-08-28T11:43:08.501Z,7.37
2023-08-28T11:45:39.886Z,7.05
2023-08-28T11:48:08.122Z,6.97
2023-08-28T11:50:36.035Z,7.12
2023-08-28T11:53:04.223Z,6.73
2023-08-28T11:55:34.870Z,6.80
2023-08-28T11:58:05.659Z,7.95
2023-08-28T12:00:33.489Z,7.28
2023-08-28T12:03:01.442Z,7.70
2023-08-28T12:05:28.987Z,6.73
2023-08-28T12:07:56.628Z,7.05
2023-08-28T12:10:24.633Z,7.70
2023-08-28T12:12:56.110Z,7.45
2023-08-28T12:15:42.246Z,7.68
2023-08-28T12:18:09.807Z,6.93
2023-08-28T12:20:38.811Z,6.53
2023-08-28T12:23:06.656Z,7.32
2023-08-28T12:25:36.619Z,7.47
2023-08-28T12:28:06.894Z,7.72
2023-08-28T12:30:34.776Z,6.50
2023-08-28T12:33:04.478Z,7.60
2023-08-28T12:35:39.765Z,6.60
2023-08-28T12:38:08.207Z,7.40
2023-08-28T12:40:37.646Z,7.40
2023-08-28T12:43:11.993Z,7.33
2023-08-28T12:45:40.132Z,7.22
2023-08-28T12:48:08.933Z,7.28
2023-08-28T12:50:37.148Z,7.55
2023-08-28T12:53:07.882Z,7.03
2023-08-28T12:55:36.343Z,7.27
2023-08-28T12:58:04.050Z,6.53
2023-08-28T13:00:31.894Z,6.47
2023-08-28T13:02:59.600Z,5.97
2023-08-28T13:05:27.287Z,6.53
2023-08-28T13:07:55.150Z,6.53
2023-08-28T13:10:22.634Z,6.12
2023-08-28T13:12:50.256Z,7.62
2023-08-28T13:15:18.196Z,6.32
2023-08-28T13:17:45.911Z,6.28
2023-08-28T13:20:13.718Z,5.83
2023-08-28T13:22:41.610Z,6.22
2023-08-28T13:25:09.414Z,6.60
2023-08-28T13:27:36.986Z,5.45
2023-08-28T13:30:08.380Z,5.97
2023-08-28T13:32:35.967Z,5.97
2023-08-28T13:35:05.965Z,5.47
2023-08-28T13:37:33.730Z,5.93
2023-08-28T13:40:01.278Z,6.20
2023-08-28T13:42:28.817Z,5.85
2023-08-28T13:44:57.634Z,5.77
2023-08-28T13:47:25.177Z,5.90
2023-08-28T13:49:53.981Z,6.55
2023-08-28T13:52:24.774Z,6.45
2023-08-28T13:54:52.572Z,5.82
2023-08-28T13:57:20.184Z,5.77
2023-08-28T13:59:47.997Z,5.87
2023-08-28T14:02:15.599Z,6.25
2023-08-28T14:04:44.771Z,6.82
2023-08-28T14:07:12.421Z,6.03
2023-08-28T14:09:40.155Z,6.13
2023-08-28T14:12:08.207Z,6.32
2023-08-28T14:14:35.799Z,6.03
2023-08-28T14:17:04.002Z,5.30
2023-08-28T14:19:31.956Z,5.45
2023-08-28T14:21:59.514Z,5.93
2023-08-28T14:24:27.275Z,5.50
2023-08-28T14:26:55.098Z,5.93
2023-08-28T14:29:22.674Z,5.53
2023-08-28T14:31:50.236Z,5.45
2023-08-28T14:34:18.072Z,5.80
2023-08-28T14:36:45.590Z,5.68
2023-08-28T14:39:13.227Z,4.90
2023-08-28T14:41:41.503Z,5.62
2023-08-28T14:44:09.132Z,5.32
2023-08-28T14:46:36.865Z,5.03
2023-08-28T14:49:04.843Z,4.80
2023-08-28T14:51:32.428Z,4.68
2023-08-28T14:54:00.867Z,5.82
2023-08-28T14:56:28.863Z,5.85
2023-08-28T14:58:56.422Z,5.60
2023-08-28T15:01:24.365Z,4.97
2023-08-28T15:03:52.516Z,5.35
2023-08-28T15:06:20.341Z,4.45
2023-08-28T15:08:47.916Z,4.72
2023-08-28T15:11:15.719Z,4.93
2023-08-28T15:13:43.311Z,5.70
2023-08-28T15:16:10.837Z,5.07
2023-08-28T15:18:40.325Z,4.90
2023-08-28T15:21:11.616Z,4.90
2023-08-28T15:23:39.917Z,4.63
2023-08-28T15:26:07.439Z,4.90
2023-08-28T15:28:35.138Z,4.78
2023-08-28T15:31:03.035Z,5.07
2023-08-28T15:33:30.793Z,5.07
2023-08-28T15:35:58.449Z,4.77
2023-08-28T15:38:26.309Z,5.20
2023-08-28T15:40:53.965Z,4.80
2023-08-28T15:43:22.051Z,4.72
2023-08-28T15:45:52.724Z,3.90
2023-08-28T15:48:20.518Z,4.70
2023-08-28T15:50:49.652Z,5.37
2023-08-28T15:53:17.456Z,4.80
2023-08-28T15:55:52.933Z,4.97
2023-08-28T15:58:25.398Z,4.62
2023-08-28T16:01:00.520Z,5.10
2023-08-28T16:03:29.604Z,4.40
2023-08-28T16:05:57.701Z,4.43
2023-08-28T16:08:25.305Z,4.37
2023-08-28T16:10:53.226Z,5.60
2023-08-28T16:13:21.304Z,5.47
2023-08-28T16:15:51.337Z,4.28
2023-08-28T16:18:19.388Z,4.50
2023-08-28T16:20:48.105Z,4.10
2023-08-28T16:23:15.723Z,5.00
2023-08-28T16:25:43.781Z,4.17
2023-08-28T16:28:15.002Z,5.05
2023-08-28T16:30:46.327Z,5.03
2023-08-28T16:33:13.865Z,4.80
2023-08-28T16:35:41.505Z,4.72
2023-08-28T16:38:09.390Z,4.30
2023-08-28T16:40:36.864Z,4.80
2023-08-28T16:43:04.730Z,4.57
2023-08-28T16:45:34.933Z,4.87
2023-08-28T16:48:02.844Z,4.47
2023-08-28T16:50:30.527Z,4.50
2023-08-28T16:52:58.623Z,4.47
2023-08-28T16:55:26.144Z,4.43
2023-08-28T16:57:53.900Z,4.35
2023-08-28T17:00:22.690Z,4.25
2023-08-28T17:02:53.629Z,4.63
2023-08-28T17:05:21.266Z,4.70
2023-08-28T17:07:50.378Z,3.92
2023-08-28T17:10:17.900Z,4.03
2023-08-28T17:12:45.417Z,4.57
2023-08-28T17:15:13.283Z,4.77
2023-08-28T17:17:40.944Z,4.05
2023-08-28T17:20:08.762Z,5.20
2023-08-28T17:22:36.801Z,4.20
2023-08-28T17:25:04.652Z,4.15
2023-08-28T17:27:32.149Z,5.03
2023-08-28T17:30:00.117Z,4.57
2023-08-28T17:32:30.424Z,4.65
2023-08-28T17:34:58.050Z,4.45
2023-08-28T17:37:25.934Z,4.82
2023-08-28T17:39:53.597Z,3.80
2023-08-28T17:42:21.166Z,4.47
2023-08-28T17:44:48.969Z,4.90
2023-08-28T17:47:16.573Z,4.10
2023-08-28T17:49:45.357Z,4.37
2023-08-28T17:52:13.503Z,4.57
2023-08-28T17:54:42.203Z,4.55
2023-08-28T17:57:09.712Z,4.80
2023-08-28T17:59:37.602Z,4.65
2023-08-28T18:02:05.368Z,4.37
2023-08-28T18:04:33.342Z,4.67
2023-08-28T18:07:01.018Z,4.47
2023-08-28T18:09:28.755Z,4.50
2023-08-28T18:11:56.684Z,4.28
2023-08-28T18:14:25.078Z,4.57
2023-08-28T18:16:52.573Z,4.40
2023-08-28T18:19:20.365Z,4.75
2023-08-28T18:21:48.007Z,4.82
2023-08-28T18:24:15.653Z,4.47
2023-08-28T18:26:43.538Z,4.57
2023-08-28T18:29:11.045Z,4.53
2023-08-28T18:31:38.540Z,5.43
2023-08-28T18:34:06.349Z,4.05
2023-08-28T18:36:33.934Z,4.12
2023-08-28T18:39:01.523Z,4.55
2023-08-28T18:41:29.888Z,4.00
2023-08-28T18:43:57.465Z,4.90
2023-08-28T18:46:24.998Z,4.72
2023-08-28T18:48:52.857Z,5.28
2023-08-28T18:51:20.440Z,4.40
2023-08-28T18:53:48.978Z,4.30
2023-08-28T18:56:19.282Z,4.15
2023-08-28T18:58:46.854Z,4.80
2023-08-28T19:01:14.635Z,4.18
2023-08-28T19:03:42.651Z,4.05
2023-08-28T19:06:10.283Z,4.47
2023-08-28T19:08:38.075Z,4.47
2023-08-28T19:11:08.506Z,4.68
2023-08-28T19:13:36.181Z,3.95
2023-08-28T19:16:03.870Z,5.22
2023-08-28T19:18:32.008Z,4.17
2023-08-28T19:21:03.425Z,4.40
2023-08-28T19:23:31.879Z,4.55
2023-08-28T19:25:59.639Z,4.50
2023-08-28T19:28:28.116Z,4.47
2023-08-28T19:30:56.058Z,4.73
2023-08-28T19:33:23.612Z,4.32
2023-08-28T19:35:51.712Z,4.85
2023-08-28T19:38:19.914Z,4.22
2023-08-28T19:40:48.109Z,4.95
2023-08-28T19:43:16.533Z,4.30
2023-08-28T19:45:44.707Z,4.53
2023-08-28T19:48:12.424Z,4.50
2023-08-28T19:50:40.114Z,4.20
2023-08-28T19:53:08.471Z,4.47
2023-08-28T19:55:36.259Z,4.47
2023-08-28T19:58:04.600Z,4.37
2023-08-28T20:00:32.995Z,4.97
2023-08-28T20:03:00.990Z,4.40
2023-08-28T20:05:28.584Z,4.37
2023-08-28T20:07:56.246Z,4.50
2023-08-28T20:10:24.290Z,4.32
2023-08-28T20:12:51.833Z,3.85
2023-08-28T20:15:19.711Z,3.83
2023-08-28T20:17:47.578Z,3.90
2023-08-28T20:20:15.144Z,4.30
2023-08-28T20:22:43.158Z,3.90
2023-08-28T20:25:11.216Z,4.28
2023-08-28T20:27:38.955Z,3.95
2023-08-28T20:30:10.546Z,4.20
2023-08-28T20:32:39.180Z,3.83
2023-08-28T20:35:09.980Z,4.50
2023-08-28T20:37:38.154Z,3.70
2023-08-28T20:40:06.576Z,3.37
2023-08-28T20:42:36.453Z,3.97
2023-08-28T20:45:05.601Z,3.63
2023-08-28T20:47:39.687Z,4.12
2023-08-28T20:50:10.404Z,4.53
2023-08-28T20:52:38.892Z,4.12
2023-08-28T20:55:08.361Z,3.78
2023-08-28T20:57:36.255Z,5.60
2023-08-28T21:00:05.783Z,4.10
2023-08-28T21:02:34.225Z,4.80
2023-08-28T21:05:01.969Z,4.28
2023-08-28T21:07:29.756Z,4.40
2023-08-28T21:09:57.632Z,3.57
2023-08-28T21:12:25.177Z,3.70
2023-08-28T21:14:52.820Z,3.58
2023-08-28T21:17:20.682Z,3.40
2023-08-28T21:19:48.236Z,4.50
2023-08-28T21:22:15.796Z,3.83
2023-08-28T21:24:43.687Z,4.05
2023-08-28T21:27:11.247Z,3.50
2023-08-28T21:29:38.864Z,3.50
2023-08-28T21:32:08.259Z,3.75
2023-08-28T21:34:35.901Z,4.10
2023-08-28T21:37:03.529Z,3.30
2023-08-28T21:39:31.359Z,3.70
2023-08-28T21:41:59.075Z,4.25
2023-08-28T21:44:27.423Z,4.00
2023-08-28T21:46:55.324Z,3.87
2023-08-28T21:49:42.277Z,3.80
2023-08-28T21:52:28.271Z,3.60
2023-08-28T21:55:14.792Z,4.25
2023-08-28T21:58:01.172Z,5.53
2023-08-28T22:00:47.419Z,5.63
2023-08-28T22:03:33.805Z,6.15
2023-08-28T22:06:19.625Z,5.57
2023-08-28T22:08:47.479Z,6.07
2023-08-28T22:11:17.903Z,6.10
2023-08-28T22:13:46.027Z,6.20
2023-08-28T22:16:13.839Z,7.18
2023-08-28T22:18:41.523Z,5.82
2023-08-28T22:22:14.709Z,6.30
2023-08-28T22:24:43.030Z,6.15
2023-08-28T22:27:10.533Z,6.67
2023-08-28T22:29:38.078Z,6.75
2023-08-28T22:32:07.123Z,7.70
2023-08-28T22:34:34.762Z,7.45
2023-08-28T22:37:02.274Z,7.68
2023-08-28T22:39:30.055Z,7.30
2023-08-28T22:41:57.579Z,7.70
2023-08-28T22:44:25.042Z,7.93
2023-08-28T22:46:52.973Z,7.87
2023-08-28T22:49:20.808Z,6.95
2023-08-28T22:51:49.377Z,7.30
2023-08-28T22:54:17.680Z,7.60
2023-08-28T22:56:45.543Z,6.80
2023-08-28T22:59:13.576Z,6.95
2023-08-28T23:01:41.521Z,7.03
2023-08-28T23:04:09.088Z,6.53
2023-08-28T23:06:36.694Z,6.15
2023-08-28T23:09:06.350Z,5.70
2023-08-28T23:11:34.067Z,6.55
2023-08-28T23:14:01.623Z,5.87
2023-08-28T23:16:29.448Z,6.53
2023-08-28T23:18:57.873Z,5.60
2023-08-28T23:21:25.540Z,5.10
2023-08-28T23:23:53.388Z,5.40
2023-08-28T23:26:20.963Z,5.57
2023-08-28T23:28:48.612Z,5.47
2023-08-28T23:31:16.548Z,5.20
2023-08-28T23:33:44.299Z,4.68
2023-08-28T23:36:12.184Z,5.37
2023-08-28T23:38:40.028Z,5.40
2023-08-28T23:41:07.545Z,5.30
2023-08-28T23:43:35.344Z,5.60
2023-08-28T23:46:03.685Z,5.10
2023-08-28T23:48:31.281Z,4.97
2023-08-28T23:50:58.884Z,5.18
2023-08-28T23:53:26.908Z,5.17
2023-08-28T23:55:54.566Z,5.25
2023-08-28T23:58:22.237Z,5.10
